sensor_id;sensor_type;location;lat;lon;timestamp;pressure;altitude;pressure_sealevel;temperature;humidity
17060;BME280;8646;49.716;9.266;2022-11-20T00:02:26;99886.88;;;2.96;100.00
17060;BME280;8646;49.716;9.266;2022-11-20T00:05:31;99890.69;;;2.83;100.00
17060;BME280;8646;49.716;9.266;2022-11-20T00:08:35;99901.50;;;2.75;100.00
17060;BME280;8646;49.716;9.266;2022-11-20T00:11:39;99821.22;;;2.34;100.00
17060;BME280;8646;49.716;9.266;2022-11-20T00:14:42;99878.41;;;2.73;100.00
17060;BME280;8646;49.716;9.266;2022-11-20T00:17:45;99886.41;;;2.73;100.00
17060;BME280;8646;49.716;9.266;2022-11-20T00:20:49;99883.69;;;2.76;100.00
17060;BME280;8646;49.716;9.266;2022-11-20T00:23:53;99892.63;;;2.75;100.00
17060;BME280;8646;49.716;9.266;2022-11-20T00:26:56;99886.25;;;2.80;100.00
17060;BME280;8646;49.716;9.266;2022-11-20T00:29:59;99886.25;;;2.80;100.00
17060;BME280;8646;49.716;9.266;2022-11-20T00:33:02;99891.63;;;2.80;100.00
17060;BME280;8646;49.716;9.266;2022-11-20T00:36:08;99888.06;;;2.78;100.00
17060;BME280;8646;49.716;9.266;2022-11-20T00:39:11;99896.94;;;2.82;100.00
17060;BME280;8646;49.716;9.266;2022-11-20T00:42:14;99887.16;;;2.81;100.00
17060;BME280;8646;49.716;9.266;2022-11-20T00:45:17;99863.16;;;2.78;100.00
17060;BME280;8646;49.716;9.266;2022-11-20T00:48:20;99862.97;;;2.87;100.00
17060;BME280;8646;49.716;9.266;2022-11-20T00:51:25;99865.72;;;2.84;100.00
17060;BME280;8646;49.716;9.266;2022-11-20T00:54:28;99869.59;;;2.67;100.00
17060;BME280;8646;49.716;9.266;2022-11-20T00:57:31;99867.91;;;2.60;100.00
17060;BME280;8646;49.716;9.266;2022-11-20T01:00:34;99857.22;;;2.60;100.00
17060;BME280;8646;49.716;9.266;2022-11-20T01:03:38;99865.28;;;2.59;100.00
17060;BME280;8646;49.716;9.266;2022-11-20T01:06:43;99866.25;;;2.53;100.00
17060;BME280;8646;49.716;9.266;2022-11-20T01:09:45;99854.78;;;2.48;100.00
17060;BME280;8646;49.716;9.266;2022-11-20T01:12:48;99861.94;;;2.46;100.00
17060;BME280;8646;49.716;9.266;2022-11-20T01:16:13;99858.50;;;2.40;100.00
17060;BME280;8646;49.716;9.266;2022-11-20T01:19:18;99862.03;;;2.40;100.00
17060;BME280;8646;49.716;9.266;2022-11-20T01:22:23;99864.13;;;2.23;100.00
17060;BME280;8646;49.716;9.266;2022-11-20T01:25:25;99867.69;;;2.22;100.00
17060;BME280;8646;49.716;9.266;2022-11-20T01:28:28;99872.97;;;2.26;100.00
17060;BME280;8646;49.716;9.266;2022-11-20T01:31:32;99874.66;;;2.32;100.00
17060;BME280;8646;49.716;9.266;2022-11-20T01:34:36;99877.28;;;2.35;100.00
17060;BME280;8646;49.716;9.266;2022-11-20T01:37:40;99867.63;;;2.26;100.00
17060;BME280;8646;49.716;9.266;2022-11-20T01:40:43;99872.88;;;2.31;100.00
17060;BME280;8646;49.716;9.266;2022-11-20T01:43:45;99871.25;;;2.22;100.00
17060;BME280;8646;49.716;9.266;2022-11-20T01:46:53;99859.88;;;2.10;100.00
17060;BME280;8646;49.716;9.266;2022-11-20T01:50:03;99858.97;;;2.11;100.00
17060;BME280;8646;49.716;9.266;2022-11-20T01:53:11;99859.97;;;2.04;100.00
17060;BME280;8646;49.716;9.266;2022-11-20T01:56:15;99858.28;;;1.97;100.00
17060;BME280;8646;49.716;9.266;2022-11-20T01:59:19;99859.00;;;2.09;100.00
17060;BME280;8646;49.716;9.266;2022-11-20T02:02:24;99860.78;;;2.09;100.00
17060;BME280;8646;49.716;9.266;2022-11-20T02:05:31;99859.97;;;2.04;100.00
17060;BME280;8646;49.716;9.266;2022-11-20T02:08:37;99855.38;;;2.12;100.00
17060;BME280;8646;49.716;9.266;2022-11-20T02:11:40;99851.66;;;2.23;100.00
17060;BME280;8646;49.716;9.266;2022-11-20T02:14:43;99855.09;;;2.28;100.00
17060;BME280;8646;49.716;9.266;2022-11-20T02:17:45;99848.09;;;2.23;100.00
17060;BME280;8646;49.716;9.266;2022-11-20T02:20:50;99847.31;;;2.16;100.00
17060;BME280;8646;49.716;9.266;2022-11-20T02:24:03;99851.78;;;2.16;100.00
17060;BME280;8646;49.716;9.266;2022-11-20T02:27:09;99847.28;;;2.18;100.00
17060;BME280;8646;49.716;9.266;2022-11-20T02:30:12;99844.63;;;2.18;100.00
17060;BME280;8646;49.716;9.266;2022-11-20T02:33:15;99847.34;;;2.15;100.00
17060;BME280;8646;49.716;9.266;2022-11-20T02:36:18;99840.13;;;2.20;100.00
17060;BME280;8646;49.716;9.266;2022-11-20T02:39:23;99824.91;;;2.26;100.00
17060;BME280;8646;49.716;9.266;2022-11-20T02:42:27;99836.41;;;2.28;100.00
17060;BME280;8646;49.716;9.266;2022-11-20T02:45:30;99841.75;;;2.30;100.00
17060;BME280;8646;49.716;9.266;2022-11-20T02:48:33;99832.16;;;2.18;100.00
17060;BME280;8646;49.716;9.266;2022-11-20T02:51:35;99832.06;;;2.23;100.00
17060;BME280;8646;49.716;9.266;2022-11-20T02:54:39;99831.06;;;2.28;100.00
17060;BME280;8646;49.716;9.266;2022-11-20T02:57:42;99823.16;;;2.24;100.00
17060;BME280;8646;49.716;9.266;2022-11-20T03:00:45;99822.25;;;2.25;100.00
17060;BME280;8646;49.716;9.266;2022-11-20T03:03:48;99815.03;;;2.30;100.00
17060;BME280;8646;49.716;9.266;2022-11-20T03:06:51;99817.81;;;2.25;100.00
17060;BME280;8646;49.716;9.266;2022-11-20T03:09:55;99818.72;;;2.23;100.00
17060;BME280;8646;49.716;9.266;2022-11-20T03:12:57;99807.13;;;2.25;100.00
17060;BME280;8646;49.716;9.266;2022-11-20T03:16:08;99824.94;;;2.25;100.00
17060;BME280;8646;49.716;9.266;2022-11-20T03:19:11;99818.59;;;2.29;100.00
17060;BME280;8646;49.716;9.266;2022-11-20T03:22:14;99822.16;;;2.31;100.00
17060;BME280;8646;49.716;9.266;2022-11-20T03:25:19;99815.91;;;2.30;100.00
17060;BME280;8646;49.716;9.266;2022-11-20T03:28:21;99815.16;;;2.24;100.00
17060;BME280;8646;49.716;9.266;2022-11-20T03:31:26;99827.47;;;2.31;100.00
17060;BME280;8646;49.716;9.266;2022-11-20T03:34:29;99818.56;;;2.32;100.00
17060;BME280;8646;49.716;9.266;2022-11-20T03:37:32;99814.03;;;2.36;100.00
17060;BME280;8646;49.716;9.266;2022-11-20T03:40:36;99813.34;;;2.26;100.00
17060;BME280;8646;49.716;9.266;2022-11-20T03:43:39;99820.38;;;2.30;100.00
17060;BME280;8646;49.716;9.266;2022-11-20T03:46:42;99816.81;;;2.31;100.00
17060;BME280;8646;49.716;9.266;2022-11-20T03:49:44;99809.78;;;2.27;100.00
17060;BME280;8646;49.716;9.266;2022-11-20T03:52:47;99813.28;;;2.27;100.00
17060;BME280;8646;49.716;9.266;2022-11-20T03:55:52;99809.66;;;2.33;100.00
17060;BME280;8646;49.716;9.266;2022-11-20T03:58:55;99807.94;;;2.29;100.00
17060;BME280;8646;49.716;9.266;2022-11-20T04:01:58;99811.56;;;2.25;100.00
17060;BME280;8646;49.716;9.266;2022-11-20T04:05:02;99808.16;;;2.17;100.00
17060;BME280;8646;49.716;9.266;2022-11-20T04:08:05;99804.47;;;2.24;100.00
17060;BME280;8646;49.716;9.266;2022-11-20T04:11:11;99804.16;;;2.42;100.00
17060;BME280;8646;49.716;9.266;2022-11-20T04:14:15;99808.53;;;2.45;100.00
17060;BME280;8646;49.716;9.266;2022-11-20T04:17:18;99822.78;;;2.45;100.00
17060;BME280;8646;49.716;9.266;2022-11-20T04:20:21;99812.06;;;2.47;100.00
17060;BME280;8646;49.716;9.266;2022-11-20T04:23:23;99816.59;;;2.43;100.00
17060;BME280;8646;49.716;9.266;2022-11-20T04:26:30;99813.06;;;2.41;100.00
17060;BME280;8646;49.716;9.266;2022-11-20T04:29:33;99815.72;;;2.43;100.00
17060;BME280;8646;49.716;9.266;2022-11-20T04:32:36;99812.22;;;2.38;100.00
17060;BME280;8646;49.716;9.266;2022-11-20T04:35:39;99817.44;;;2.45;100.00
17060;BME280;8646;49.716;9.266;2022-11-20T04:38:43;99770.63;;;2.26;100.00
17060;BME280;8646;49.716;9.266;2022-11-20T04:41:47;99812.06;;;2.47;100.00
17060;BME280;8646;49.716;9.266;2022-11-20T04:45:10;99805.59;;;2.60;100.00
17060;BME280;8646;49.716;9.266;2022-11-20T04:48:13;99800.34;;;2.55;100.00
17060;BME280;8646;49.716;9.266;2022-11-20T04:51:16;99795.03;;;2.52;100.00
17060;BME280;8646;49.716;9.266;2022-11-20T04:54:18;99796.78;;;2.55;100.00
17060;BME280;8646;49.716;9.266;2022-11-20T04:57:23;99797.66;;;2.55;100.00
17060;BME280;8646;49.716;9.266;2022-11-20T05:00:26;99795.03;;;2.52;100.00
17060;BME280;8646;49.716;9.266;2022-11-20T05:03:29;99796.81;;;2.53;100.00
17060;BME280;8646;49.716;9.266;2022-11-20T05:06:32;99788.72;;;2.58;100.00
17060;BME280;8646;49.716;9.266;2022-11-20T05:09:35;99789.69;;;2.52;100.00
17060;BME280;8646;49.716;9.266;2022-11-20T05:12:39;99786.13;;;2.53;100.00
17060;BME280;8646;49.716;9.266;2022-11-20T05:15:42;99784.31;;;2.55;100.00
17060;BME280;8646;49.716;9.266;2022-11-20T05:18:45;99779.81;;;2.59;100.00
17060;BME280;8646;49.716;9.266;2022-11-20T05:21:47;99775.34;;;2.59;100.00
17060;BME280;8646;49.716;9.266;2022-11-20T05:24:50;99778.84;;;2.61;100.00
17060;BME280;8646;49.716;9.266;2022-11-20T05:27:54;99770.06;;;2.56;100.00
17060;BME280;8646;49.716;9.266;2022-11-20T05:31:04;99768.06;;;2.67;100.00
17060;BME280;8646;49.716;9.266;2022-11-20T05:34:07;99776.09;;;2.67;100.00
17060;BME280;8646;49.716;9.266;2022-11-20T05:37:10;99776.00;;;2.71;100.00
17060;BME280;8646;49.716;9.266;2022-11-20T05:40:13;99778.53;;;2.77;100.00
17060;BME280;8646;49.716;9.266;2022-11-20T05:43:17;99777.72;;;2.75;100.00
17060;BME280;8646;49.716;9.266;2022-11-20T05:46:20;99773.44;;;2.66;100.00
17060;BME280;8646;49.716;9.266;2022-11-20T05:49:29;99778.63;;;2.74;100.00
17060;BME280;8646;49.716;9.266;2022-11-20T05:52:31;99775.97;;;2.72;100.00
17060;BME280;8646;49.716;9.266;2022-11-20T05:55:34;99774.16;;;2.74;100.00
17060;BME280;8646;49.716;9.266;2022-11-20T05:58:39;99775.84;;;2.78;100.00
17060;BME280;8646;49.716;9.266;2022-11-20T06:01:42;99780.31;;;2.78;100.00
17060;BME280;8646;49.716;9.266;2022-11-20T06:04:44;99774.06;;;2.79;100.00
17060;BME280;8646;49.716;9.266;2022-11-20T06:07:47;99781.28;;;2.75;100.00
17060;BME280;8646;49.716;9.266;2022-11-20T06:10:50;99782.28;;;2.68;100.00
17060;BME280;8646;49.716;9.266;2022-11-20T06:13:54;99776.00;;;2.71;100.00
17060;BME280;8646;49.716;9.266;2022-11-20T06:16:58;99783.00;;;2.76;100.00
17060;BME280;8646;49.716;9.266;2022-11-20T06:20:01;99774.88;;;2.84;100.00
17060;BME280;8646;49.716;9.266;2022-11-20T06:23:03;99762.41;;;2.83;100.00
17060;BME280;8646;49.716;9.266;2022-11-20T06:26:08;99767.94;;;2.74;100.00
17060;BME280;8646;49.716;9.266;2022-11-20T06:29:13;99778.53;;;2.78;100.00
17060;BME280;8646;49.716;9.266;2022-11-20T06:32:16;99771.50;;;2.73;100.00
17060;BME280;8646;49.716;9.266;2022-11-20T06:35:18;99757.59;;;2.55;100.00
17060;BME280;8646;49.716;9.266;2022-11-20T06:38:21;99783.84;;;2.80;100.00
17060;BME280;8646;49.716;9.266;2022-11-20T06:41:24;99770.44;;;2.83;100.00
17060;BME280;8646;49.716;9.266;2022-11-20T06:44:28;99758.69;;;2.90;100.00
17060;BME280;8646;49.716;9.266;2022-11-20T06:47:31;99758.78;;;2.85;100.00
17060;BME280;8646;49.716;9.266;2022-11-20T06:50:36;99769.44;;;2.87;100.00
17060;BME280;8646;49.716;9.266;2022-11-20T06:53:39;99756.03;;;2.90;100.00
17060;BME280;8646;49.716;9.266;2022-11-20T06:56:41;99757.72;;;2.94;100.00
17060;BME280;8646;49.716;9.266;2022-11-20T06:59:46;99752.38;;;2.94;100.00
17060;BME280;8646;49.716;9.266;2022-11-20T07:02:48;99754.13;;;2.95;100.00
17060;BME280;8646;49.716;9.266;2022-11-20T07:05:54;99747.94;;;2.93;100.00
17060;BME280;8646;49.716;9.266;2022-11-20T07:08:57;99749.06;;;2.81;100.00
17060;BME280;8646;49.716;9.266;2022-11-20T07:12:00;99762.28;;;2.89;100.00
17060;BME280;8646;49.716;9.266;2022-11-20T07:15:05;99766.00;;;2.82;100.00
17060;BME280;8646;49.716;9.266;2022-11-20T07:18:09;99783.72;;;2.84;100.00
17060;BME280;8646;49.716;9.266;2022-11-20T07:21:12;99789.94;;;2.86;100.00
17060;BME280;8646;49.716;9.266;2022-11-20T07:24:15;99793.66;;;2.79;100.00
17060;BME280;8646;49.716;9.266;2022-11-20T07:27:18;99792.75;;;2.79;100.00
17060;BME280;8646;49.716;9.266;2022-11-20T07:30:22;99797.38;;;2.71;100.00
17060;BME280;8646;49.716;9.266;2022-11-20T07:33:25;99801.84;;;2.68;100.00
17060;BME280;8646;49.716;9.266;2022-11-20T07:36:28;99794.69;;;2.71;100.00
17060;BME280;8646;49.716;9.266;2022-11-20T07:39:31;99793.78;;;2.73;100.00
17060;BME280;8646;49.716;9.266;2022-11-20T07:42:33;99791.13;;;2.72;100.00
17060;BME280;8646;49.716;9.266;2022-11-20T07:45:38;99786.66;;;2.72;100.00
17060;BME280;8646;49.716;9.266;2022-11-20T07:48:41;99792.94;;;2.69;100.00
17060;BME280;8646;49.716;9.266;2022-11-20T07:51:43;99797.41;;;2.69;100.00
17060;BME280;8646;49.716;9.266;2022-11-20T07:54:52;99794.63;;;2.75;100.00
17060;BME280;8646;49.716;9.266;2022-11-20T07:57:55;99786.53;;;2.78;100.00
17060;BME280;8646;49.716;9.266;2022-11-20T08:01:02;99790.03;;;2.82;100.00
17060;BME280;8646;49.716;9.266;2022-11-20T08:04:06;99788.22;;;2.84;100.00
17060;BME280;8646;49.716;9.266;2022-11-20T08:07:09;99778.38;;;2.86;100.00
17060;BME280;8646;49.716;9.266;2022-11-20T08:10:13;99785.50;;;2.85;100.00
17060;BME280;8646;49.716;9.266;2022-11-20T08:13:17;99799.81;;;2.83;100.00
17060;BME280;8646;49.716;9.266;2022-11-20T08:16:39;99797.19;;;2.80;100.00
17060;BME280;8646;49.716;9.266;2022-11-20T08:19:42;99787.38;;;2.82;100.00
17060;BME280;8646;49.716;9.266;2022-11-20T08:22:45;99802.44;;;2.84;100.00
17060;BME280;8646;49.716;9.266;2022-11-20T08:25:49;99809.69;;;2.78;100.00
17060;BME280;8646;49.716;9.266;2022-11-20T08:28:53;99790.97;;;2.79;100.00
17060;BME280;8646;49.716;9.266;2022-11-20T08:31:58;99792.59;;;2.88;100.00
17060;BME280;8646;49.716;9.266;2022-11-20T08:35:01;99817.53;;;2.87;100.00
17060;BME280;8646;49.716;9.266;2022-11-20T08:38:04;99814.66;;;2.99;100.00
17060;BME280;8646;49.716;9.266;2022-11-20T08:41:07;99813.66;;;3.03;100.00
17060;BME280;8646;49.716;9.266;2022-11-20T08:44:28;99812.91;;;2.96;100.00
17060;BME280;8646;49.716;9.266;2022-11-20T08:47:32;99797.66;;;3.01;100.00
17060;BME280;8646;49.716;9.266;2022-11-20T08:50:35;99819.91;;;3.02;100.00
17060;BME280;8646;49.716;9.266;2022-11-20T08:53:37;99819.19;;;2.94;100.00
17060;BME280;8646;49.716;9.266;2022-11-20T08:56:40;99829.56;;;3.09;100.00
17060;BME280;8646;49.716;9.266;2022-11-20T08:59:43;99832.25;;;3.09;100.00
17060;BME280;8646;49.716;9.266;2022-11-20T09:03:08;99827.88;;;3.05;100.00
17060;BME280;8646;49.716;9.266;2022-11-20T09:06:12;99831.63;;;2.96;100.00
17060;BME280;8646;49.716;9.266;2022-11-20T09:09:15;99841.56;;;2.88;100.00
17060;BME280;8646;49.716;9.266;2022-11-20T09:12:19;99850.94;;;3.09;100.00
17060;BME280;8646;49.716;9.266;2022-11-20T09:15:24;99849.00;;;3.17;100.00
17060;BME280;8646;49.716;9.266;2022-11-20T09:18:31;99856.13;;;3.18;100.00
17060;BME280;8646;49.716;9.266;2022-11-20T09:21:35;99845.25;;;3.27;100.00
17060;BME280;8646;49.716;9.266;2022-11-20T09:24:38;99828.41;;;3.22;100.00
17060;BME280;8646;49.716;9.266;2022-11-20T09:27:40;99851.88;;;3.50;100.00
17060;BME280;8646;49.716;9.266;2022-11-20T09:30:45;99858.94;;;3.54;100.00
17060;BME280;8646;49.716;9.266;2022-11-20T09:33:50;99848.09;;;3.61;100.00
17060;BME280;8646;49.716;9.266;2022-11-20T09:36:53;99843.28;;;3.75;100.00
17060;BME280;8646;49.716;9.266;2022-11-20T09:39:55;99846.66;;;3.85;100.00
17060;BME280;8646;49.716;9.266;2022-11-20T09:43:01;99839.19;;;3.98;100.00
17060;BME280;8646;49.716;9.266;2022-11-20T09:46:14;99846.91;;;4.11;100.00
17060;BME280;8646;49.716;9.266;2022-11-20T09:49:29;99839.13;;;4.38;100.00
17060;BME280;8646;49.716;9.266;2022-11-20T09:52:40;99840.50;;;4.54;100.00
17060;BME280;8646;49.716;9.266;2022-11-20T09:55:48;99833.41;;;4.51;100.00
17060;BME280;8646;49.716;9.266;2022-11-20T09:58:52;99834.25;;;4.53;100.00
17060;BME280;8646;49.716;9.266;2022-11-20T10:01:59;99834.50;;;4.44;100.00
17060;BME280;8646;49.716;9.266;2022-11-20T10:05:08;99833.47;;;4.48;100.00
17060;BME280;8646;49.716;9.266;2022-11-20T10:08:17;99834.25;;;4.53;100.00
17060;BME280;8646;49.716;9.266;2022-11-20T10:11:28;99831.41;;;4.59;100.00
17060;BME280;8646;49.716;9.266;2022-11-20T10:14:41;99821.47;;;4.63;100.00
17060;BME280;8646;49.716;9.266;2022-11-20T10:17:58;99827.69;;;4.65;100.00
17060;BME280;8646;49.716;9.266;2022-11-20T10:21:13;99811.59;;;4.65;100.00
17060;BME280;8646;49.716;9.266;2022-11-20T10:28:00;99817.09;;;4.60;100.00
17060;BME280;8646;49.716;9.266;2022-11-20T10:31:12;99787.09;;;4.46;100.00
17060;BME280;8646;49.716;9.266;2022-11-20T10:34:20;99806.25;;;4.65;100.00
17060;BME280;8646;49.716;9.266;2022-11-20T10:37:27;99791.91;;;4.66;100.00
17060;BME280;8646;49.716;9.266;2022-11-20T10:40:35;99800.56;;;4.77;100.00
17060;BME280;8646;49.716;9.266;2022-11-20T10:43:40;99801.25;;;4.84;100.00
17060;BME280;8646;49.716;9.266;2022-11-20T10:46:44;99805.75;;;4.83;100.00
17060;BME280;8646;49.716;9.266;2022-11-20T10:49:51;99794.19;;;4.81;100.00
17060;BME280;8646;49.716;9.266;2022-11-20T10:53:18;99787.25;;;4.73;100.00
17060;BME280;8646;49.716;9.266;2022-11-20T10:56:30;99795.91;;;4.84;100.00
17060;BME280;8646;49.716;9.266;2022-11-20T10:59:54;99785.94;;;4.87;100.00
17060;BME280;8646;49.716;9.266;2022-11-20T11:03:01;99790.19;;;4.96;100.00
17060;BME280;8646;49.716;9.266;2022-11-20T11:06:08;99791.75;;;5.03;100.00
17060;BME280;8646;49.716;9.266;2022-11-20T11:09:18;99785.38;;;5.09;100.00
17060;BME280;8646;49.716;9.266;2022-11-20T11:12:26;99779.00;;;5.11;100.00
17060;BME280;8646;49.716;9.266;2022-11-20T11:15:37;99775.47;;;5.11;100.00
17060;BME280;8646;49.716;9.266;2022-11-20T11:18:40;99773.75;;;5.08;100.00
17060;BME280;8646;49.716;9.266;2022-11-20T11:21:46;99771.06;;;5.08;100.00
17060;BME280;8646;49.716;9.266;2022-11-20T11:24:57;99737.81;;;4.84;100.00
17060;BME280;8646;49.716;9.266;2022-11-20T11:28:02;99766.00;;;4.97;100.00
17060;BME280;8646;49.716;9.266;2022-11-20T11:31:05;99769.72;;;4.93;100.00
17060;BME280;8646;49.716;9.266;2022-11-20T11:34:12;99755.47;;;4.91;100.00
17060;BME280;8646;49.716;9.266;2022-11-20T11:37:19;99741.03;;;4.95;100.00
17060;BME280;8646;49.716;9.266;2022-11-20T11:40:31;99740.88;;;5.02;100.00
17060;BME280;8646;49.716;9.266;2022-11-20T11:43:36;99737.16;;;5.06;100.00
17060;BME280;8646;49.716;9.266;2022-11-20T11:46:58;99738.75;;;5.13;100.00
17060;BME280;8646;49.716;9.266;2022-11-20T11:50:16;99744.09;;;5.13;100.00
17060;BME280;8646;49.716;9.266;2022-11-20T11:53:20;99739.63;;;5.13;100.00
17060;BME280;8646;49.716;9.266;2022-11-20T11:56:26;99729.69;;;5.17;100.00
17060;BME280;8646;49.716;9.266;2022-11-20T11:59:39;99738.13;;;5.03;100.00
17060;BME280;8646;49.716;9.266;2022-11-20T12:02:54;99736.69;;;4.91;100.00
17060;BME280;8646;49.716;9.266;2022-11-20T12:06:01;99744.03;;;4.85;100.00
17060;BME280;8646;49.716;9.266;2022-11-20T12:09:09;99744.03;;;4.85;100.00
17060;BME280;8646;49.716;9.266;2022-11-20T12:12:18;99738.91;;;4.77;100.00
17060;BME280;8646;49.716;9.266;2022-11-20T12:15:29;99738.81;;;4.80;100.00
17060;BME280;8646;49.716;9.266;2022-11-20T12:18:32;99736.22;;;4.77;100.00
17060;BME280;8646;49.716;9.266;2022-11-20T12:21:42;99732.63;;;4.78;100.00
17060;BME280;8646;49.716;9.266;2022-11-20T12:24:54;99705.06;;;4.73;100.00
17060;BME280;8646;49.716;9.266;2022-11-20T12:28:13;99720.53;;;4.94;100.00
17060;BME280;8646;49.716;9.266;2022-11-20T12:31:31;99721.00;;;5.09;100.00
17060;BME280;8646;49.716;9.266;2022-11-20T12:34:47;99720.88;;;5.12;100.00
17060;BME280;8646;49.716;9.266;2022-11-20T12:38:20;99720.16;;;5.07;100.00
17060;BME280;8646;49.716;9.266;2022-11-20T12:41:43;99724.69;;;5.05;100.00
17060;BME280;8646;49.716;9.266;2022-11-20T12:45:32;99721.25;;;4.99;100.00
17060;BME280;8646;49.716;9.266;2022-11-20T12:49:09;99719.50;;;4.98;100.00
17060;BME280;8646;49.716;9.266;2022-11-20T12:52:31;99731.03;;;5.02;100.00
17060;BME280;8646;49.716;9.266;2022-11-20T12:55:47;99740.88;;;5.02;100.00
17060;BME280;8646;49.716;9.266;2022-11-20T12:59:19;99729.63;;;4.89;100.00
17060;BME280;8646;49.716;9.266;2022-11-20T13:02:33;99718.19;;;4.82;100.00
17060;BME280;8646;49.716;9.266;2022-11-20T13:05:46;99698.56;;;4.82;100.00
17060;BME280;8646;49.716;9.266;2022-11-20T13:08:54;99721.13;;;5.04;100.00
17060;BME280;8646;49.716;9.266;2022-11-20T13:12:03;99702.34;;;5.04;100.00
17060;BME280;8646;49.716;9.266;2022-11-20T13:15:18;99711.91;;;5.13;100.00
17060;BME280;8646;49.716;9.266;2022-11-20T13:18:38;99674.75;;;5.01;100.00
17060;BME280;8646;49.716;9.266;2022-11-20T13:21:44;99689.50;;;5.15;100.00
17060;BME280;8646;49.716;9.266;2022-11-20T13:24:51;99692.34;;;5.11;100.00
17060;BME280;8646;49.716;9.266;2022-11-20T13:27:55;99692.66;;;5.00;100.00
17060;BME280;8646;49.716;9.266;2022-11-20T13:30:58;99695.28;;;5.02;100.00
17060;BME280;8646;49.716;9.266;2022-11-20T13:34:05;99691.13;;;4.91;100.00
17060;BME280;8646;49.716;9.266;2022-11-20T13:37:25;99701.91;;;4.88;100.00
17060;BME280;8646;49.716;9.266;2022-11-20T13:40:29;99674.41;;;4.82;100.00
17060;BME280;8646;49.716;9.266;2022-11-20T13:43:35;99684.66;;;4.98;100.00
17060;BME280;8646;49.716;9.266;2022-11-20T13:46:43;99659.72;;;4.95;100.00
17060;BME280;8646;49.716;9.266;2022-11-20T13:49:48;99664.00;;;5.02;100.00
17060;BME280;8646;49.716;9.266;2022-11-20T13:52:55;99585.34;;;4.72;100.00
17060;BME280;8646;49.716;9.266;2022-11-20T13:56:05;99640.63;;;5.06;100.00
17060;BME280;8646;49.716;9.266;2022-11-20T13:59:31;99634.38;;;5.05;100.00
17060;BME280;8646;49.716;9.266;2022-11-20T14:02:40;99657.28;;;5.17;100.00
17060;BME280;8646;49.716;9.266;2022-11-20T14:05:50;99654.66;;;5.14;100.00
17060;BME280;8646;49.716;9.266;2022-11-20T14:08:54;99638.22;;;4.96;100.00
17060;BME280;8646;49.716;9.266;2022-11-20T14:11:57;99643.09;;;5.12;100.00
17060;BME280;8646;49.716;9.266;2022-11-20T14:15:01;99648.53;;;5.10;100.00
17060;BME280;8646;49.716;9.266;2022-11-20T14:18:13;99640.53;;;5.09;100.00
17060;BME280;8646;49.716;9.266;2022-11-20T14:21:25;99648.53;;;5.10;100.00
17060;BME280;8646;49.716;9.266;2022-11-20T14:24:31;99643.09;;;5.12;100.00
17060;BME280;8646;49.716;9.266;2022-11-20T14:27:36;99646.53;;;5.17;100.00
17060;BME280;8646;49.716;9.266;2022-11-20T14:30:43;99595.84;;;4.80;100.00
17060;BME280;8646;49.716;9.266;2022-11-20T14:33:47;99645.91;;;5.09;100.00
17060;BME280;8646;49.716;9.266;2022-11-20T14:36:54;99644.06;;;5.11;100.00
17060;BME280;8646;49.716;9.266;2022-11-20T14:39:59;99638.56;;;5.14;100.00
17060;BME280;8646;49.716;9.266;2022-11-20T14:43:16;99629.38;;;5.22;100.00
17060;BME280;8646;49.716;9.266;2022-11-20T14:46:20;99633.25;;;5.12;100.00
17060;BME280;8646;49.716;9.266;2022-11-20T14:49:24;99637.97;;;5.04;100.00
17060;BME280;8646;49.716;9.266;2022-11-20T14:52:29;99633.38;;;5.09;100.00
17060;BME280;8646;49.716;9.266;2022-11-20T14:55:33;99600.97;;;4.87;100.00
17060;BME280;8646;49.716;9.266;2022-11-20T14:58:37;99628.13;;;5.05;100.00
17060;BME280;8646;49.716;9.266;2022-11-20T15:01:54;99623.84;;;4.99;100.00
17060;BME280;8646;49.716;9.266;2022-11-20T15:04:58;99595.53;;;4.90;100.00
17060;BME280;8646;49.716;9.266;2022-11-20T15:08:09;99610.41;;;5.01;100.00
17060;BME280;8646;49.716;9.266;2022-11-20T15:11:18;99610.41;;;5.01;100.00
17060;BME280;8646;49.716;9.266;2022-11-20T15:14:23;99561.44;;;4.66;100.00
17060;BME280;8646;49.716;9.266;2022-11-20T15:17:26;99604.16;;;5.00;100.00
17060;BME280;8646;49.716;9.266;2022-11-20T15:20:31;99603.28;;;4.99;100.00
17060;BME280;8646;49.716;9.266;2022-11-20T15:23:36;99588.94;;;5.01;100.00
17060;BME280;8646;49.716;9.266;2022-11-20T15:26:39;99600.59;;;4.99;100.00
17060;BME280;8646;49.716;9.266;2022-11-20T15:29:42;99597.13;;;4.96;100.00
17060;BME280;8646;49.716;9.266;2022-11-20T15:32:45;99589.59;;;4.79;100.00
17060;BME280;8646;49.716;9.266;2022-11-20T15:35:48;99589.53;;;4.82;100.00
17060;BME280;8646;49.716;9.266;2022-11-20T15:38:52;99591.47;;;4.77;100.00
17060;BME280;8646;49.716;9.266;2022-11-20T15:41:55;99587.28;;;4.69;100.00
17060;BME280;8646;49.716;9.266;2022-11-20T15:44:58;99589.06;;;4.68;100.00
17060;BME280;8646;49.716;9.266;2022-11-20T15:48:01;99581.25;;;4.60;100.00
17060;BME280;8646;49.716;9.266;2022-11-20T15:51:18;99521.56;;;4.26;100.00
17060;BME280;8646;49.716;9.266;2022-11-20T15:54:25;99479.72;;;3.93;100.00
17060;BME280;8646;49.716;9.266;2022-11-20T15:57:28;99532.34;;;4.25;100.00
17060;BME280;8646;49.716;9.266;2022-11-20T16:00:31;99576.72;;;4.63;100.00
17060;BME280;8646;49.716;9.266;2022-11-20T16:03:34;99501.16;;;4.22;100.00
17060;BME280;8646;49.716;9.266;2022-11-20T16:06:37;99570.31;;;4.68;100.00
17060;BME280;8646;49.716;9.266;2022-11-20T16:09:41;99565.78;;;4.70;100.00
17060;BME280;8646;49.716;9.266;2022-11-20T16:12:44;99476.28;;;4.18;100.00
17060;BME280;8646;49.716;9.266;2022-11-20T16:16:07;99573.75;;;4.72;100.00
17060;BME280;8646;49.716;9.266;2022-11-20T16:19:11;99576.50;;;4.70;100.00
17060;BME280;8646;49.716;9.266;2022-11-20T16:22:14;99516.56;;;4.45;100.00
17060;BME280;8646;49.716;9.266;2022-11-20T16:25:21;99569.63;;;4.62;100.00
17060;BME280;8646;49.716;9.266;2022-11-20T16:28:24;99558.94;;;4.60;100.00
17060;BME280;8646;49.716;9.266;2022-11-20T16:31:27;99550.88;;;4.62;100.00
17060;BME280;8646;49.716;9.266;2022-11-20T16:34:30;99560.63;;;4.63;100.00
17060;BME280;8646;49.716;9.266;2022-11-20T16:37:34;99560.44;;;4.70;100.00
17060;BME280;8646;49.716;9.266;2022-11-20T16:40:38;99558.66;;;4.69;100.00
17060;BME280;8646;49.716;9.266;2022-11-20T16:43:44;99557.63;;;4.73;100.00